sensor_id;sensor_type;location;lat;lon;timestamp;P1;durP1;ratioP1;P2;durP2;ratioP2
71351;SDS011;59159;51.652;4.864;2023-04-05T00:00:29;5.10;;;1.50;;
71351;SDS011;59159;51.652;4.864;2023-04-05T00:02:58;5.00;;;1.73;;
71351;SDS011;59159;51.652;4.864;2023-04-05T00:05:25;4.77;;;1.73;;
71351;SDS011;59159;51.652;4.864;2023-04-05T00:07:57;6.95;;;1.73;;
71351;SDS011;59159;51.652;4.864;2023-04-05T00:10:24;5.45;;;1.75;;
71351;SDS011;59159;51.652;4.864;2023-04-05T00:12:50;5.13;;;1.80;;
71351;SDS011;59159;51.652;4.864;2023-04-05T00:15:17;4.50;;;1.23;;
71351;SDS011;59159;51.652;4.864;2023-04-05T00:17:45;5.40;;;1.67;;
71351;SDS011;59159;51.652;4.864;2023-04-05T00:20:12;4.57;;;1.80;;
71351;SDS011;59159;51.652;4.864;2023-04-05T00:22:38;6.38;;;1.65;;
71351;SDS011;59159;51.652;4.864;2023-04-05T00:25:04;4.47;;;1.50;;
71351;SDS011;59159;51.652;4.864;2023-04-05T00:27:31;4.43;;;1.60;;
71351;SDS011;59159;51.652;4.864;2023-04-05T00:29:57;4.70;;;1.70;;
71351;SDS011;59159;51.652;4.864;2023-04-05T00:32:23;5.03;;;1.52;;
71351;SDS011;59159;51.652;4.864;2023-04-05T00:34:49;5.15;;;2.00;;
71351;SDS011;59159;51.652;4.864;2023-04-05T00:37:15;4.87;;;1.63;;
71351;SDS011;59159;51.652;4.864;2023-04-05T00:39:41;6.78;;;1.65;;
71351;SDS011;59159;51.652;4.864;2023-04-05T00:42:07;4.47;;;1.65;;
71351;SDS011;59159;51.652;4.864;2023-04-05T00:44:34;6.03;;;1.73;;
71351;SDS011;59159;51.652;4.864;2023-04-05T00:47:01;5.40;;;1.25;;
71351;SDS011;59159;51.652;4.864;2023-04-05T00:49:27;5.90;;;1.50;;
71351;SDS011;59159;51.652;4.864;2023-04-05T00:51:53;5.03;;;1.40;;
71351;SDS011;59159;51.652;4.864;2023-04-05T00:54:19;5.53;;;1.43;;
71351;SDS011;59159;51.652;4.864;2023-04-05T00:56:45;5.90;;;1.73;;
71351;SDS011;59159;51.652;4.864;2023-04-05T00:59:12;5.47;;;1.52;;
71351;SDS011;59159;51.652;4.864;2023-04-05T01:01:38;6.20;;;1.50;;
71351;SDS011;59159;51.652;4.864;2023-04-05T01:04:05;4.90;;;1.30;;
71351;SDS011;59159;51.652;4.864;2023-04-05T01:09:17;5.10;;;1.40;;
71351;SDS011;59159;51.652;4.864;2023-04-05T01:11:47;5.78;;;1.40;;
71351;SDS011;59159;51.652;4.864;2023-04-05T01:14:15;5.13;;;1.63;;
71351;SDS011;59159;51.652;4.864;2023-04-05T01:16:41;5.00;;;1.55;;
71351;SDS011;59159;51.652;4.864;2023-04-05T01:19:07;4.10;;;1.30;;
71351;SDS011;59159;51.652;4.864;2023-04-05T01:37:02;4.97;;;1.38;;
71351;SDS011;59159;51.652;4.864;2023-04-05T01:39:30;5.00;;;1.50;;
71351;SDS011;59159;51.652;4.864;2023-04-05T01:42:00;4.70;;;1.33;;
71351;SDS011;59159;51.652;4.864;2023-04-05T01:44:27;4.87;;;1.30;;
71351;SDS011;59159;51.652;4.864;2023-04-05T01:46:53;4.88;;;1.85;;
71351;SDS011;59159;51.652;4.864;2023-04-05T01:49:19;4.45;;;1.30;;
71351;SDS011;59159;51.652;4.864;2023-04-05T01:51:45;4.40;;;1.30;;
71351;SDS011;59159;51.652;4.864;2023-04-05T01:54:11;5.72;;;1.75;;
71351;SDS011;59159;51.652;4.864;2023-04-05T01:56:37;5.70;;;1.65;;
71351;SDS011;59159;51.652;4.864;2023-04-05T01:59:03;5.10;;;1.40;;
71351;SDS011;59159;51.652;4.864;2023-04-05T02:01:29;4.18;;;1.30;;
71351;SDS011;59159;51.652;4.864;2023-04-05T02:03:55;5.68;;;1.70;;
71351;SDS011;59159;51.652;4.864;2023-04-05T02:06:21;6.25;;;2.38;;
71351;SDS011;59159;51.652;4.864;2023-04-05T02:08:47;4.13;;;1.10;;
71351;SDS011;59159;51.652;4.864;2023-04-05T02:11:13;6.25;;;1.70;;
71351;SDS011;59159;51.652;4.864;2023-04-05T02:13:39;4.72;;;1.55;;
71351;SDS011;59159;51.652;4.864;2023-04-05T02:16:05;4.97;;;1.43;;
71351;SDS011;59159;51.652;4.864;2023-04-05T02:18:31;6.38;;;1.90;;
71351;SDS011;59159;51.652;4.864;2023-04-05T02:21:01;6.78;;;1.63;;
71351;SDS011;59159;51.652;4.864;2023-04-05T02:23:28;5.27;;;1.60;;
71351;SDS011;59159;51.652;4.864;2023-04-05T02:25:54;5.07;;;1.60;;
71351;SDS011;59159;51.652;4.864;2023-04-05T02:28:20;5.05;;;1.30;;
71351;SDS011;59159;51.652;4.864;2023-04-05T02:30:46;4.97;;;1.50;;
71351;SDS011;59159;51.652;4.864;2023-04-05T02:33:12;4.80;;;1.40;;
71351;SDS011;59159;51.652;4.864;2023-04-05T02:35:38;4.97;;;1.75;;
71351;SDS011;59159;51.652;4.864;2023-04-05T02:38:05;5.45;;;1.60;;
71351;SDS011;59159;51.652;4.864;2023-04-05T02:40:31;6.60;;;1.70;;
71351;SDS011;59159;51.652;4.864;2023-04-05T02:42:57;4.97;;;1.70;;
71351;SDS011;59159;51.652;4.864;2023-04-05T02:45:23;4.90;;;1.38;;
71351;SDS011;59159;51.652;4.864;2023-04-05T02:47:51;4.60;;;1.43;;
71351;SDS011;59159;51.652;4.864;2023-04-05T02:50:17;5.07;;;1.58;;
71351;SDS011;59159;51.652;4.864;2023-04-05T02:52:45;5.43;;;1.80;;
71351;SDS011;59159;51.652;4.864;2023-04-05T02:55:12;6.68;;;2.15;;
71351;SDS011;59159;51.652;4.864;2023-04-05T02:57:38;5.93;;;1.77;;
71351;SDS011;59159;51.652;4.864;2023-04-05T03:00:04;4.32;;;1.52;;
71351;SDS011;59159;51.652;4.864;2023-04-05T03:02:32;6.10;;;1.83;;
71351;SDS011;59159;51.652;4.864;2023-04-05T03:04:58;6.77;;;2.03;;
71351;SDS011;59159;51.652;4.864;2023-04-05T03:07:26;5.13;;;1.70;;
71351;SDS011;59159;51.652;4.864;2023-04-05T03:09:56;6.03;;;1.67;;
71351;SDS011;59159;51.652;4.864;2023-04-05T03:12:23;6.07;;;1.80;;
71351;SDS011;59159;51.652;4.864;2023-04-05T03:14:49;5.32;;;1.95;;
71351;SDS011;59159;51.652;4.864;2023-04-05T03:17:16;6.07;;;2.00;;
71351;SDS011;59159;51.652;4.864;2023-04-05T03:19:42;5.60;;;2.10;;
71351;SDS011;59159;51.652;4.864;2023-04-05T03:22:09;5.57;;;1.83;;
71351;SDS011;59159;51.652;4.864;2023-04-05T03:24:35;6.85;;;1.77;;
71351;SDS011;59159;51.652;4.864;2023-04-05T03:27:01;5.03;;;1.55;;
71351;SDS011;59159;51.652;4.864;2023-04-05T03:29:30;6.43;;;1.70;;
71351;SDS011;59159;51.652;4.864;2023-04-05T03:31:59;6.80;;;2.40;;
71351;SDS011;59159;51.652;4.864;2023-04-05T03:34:25;5.60;;;1.80;;
71351;SDS011;59159;51.652;4.864;2023-04-05T03:36:53;5.63;;;2.07;;
71351;SDS011;59159;51.652;4.864;2023-04-05T03:39:19;5.82;;;1.70;;
71351;SDS011;59159;51.652;4.864;2023-04-05T03:41:45;5.47;;;1.75;;
71351;SDS011;59159;51.652;4.864;2023-04-05T03:44:11;5.07;;;1.85;;
71351;SDS011;59159;51.652;4.864;2023-04-05T03:46:37;6.03;;;2.10;;
71351;SDS011;59159;51.652;4.864;2023-04-05T03:49:03;5.25;;;1.80;;
71351;SDS011;59159;51.652;4.864;2023-04-05T03:51:31;4.72;;;1.80;;
71351;SDS011;59159;51.652;4.864;2023-04-05T03:53:57;5.37;;;1.83;;
71351;SDS011;59159;51.652;4.864;2023-04-05T03:56:23;4.88;;;1.77;;
71351;SDS011;59159;51.652;4.864;2023-04-05T03:58:51;5.50;;;1.95;;
71351;SDS011;59159;51.652;4.864;2023-04-05T04:01:17;5.77;;;1.90;;
71351;SDS011;59159;51.652;4.864;2023-04-05T04:03:43;5.82;;;1.90;;
71351;SDS011;59159;51.652;4.864;2023-04-05T04:06:09;4.95;;;1.75;;
71351;SDS011;59159;51.652;4.864;2023-04-05T04:08:35;5.72;;;2.00;;
71351;SDS011;59159;51.652;4.864;2023-04-05T04:11:02;7.07;;;1.90;;
71351;SDS011;59159;51.652;4.864;2023-04-05T04:13:28;5.78;;;1.88;;
71351;SDS011;59159;51.652;4.864;2023-04-05T04:15:54;5.85;;;1.85;;
71351;SDS011;59159;51.652;4.864;2023-04-05T04:18:20;5.23;;;1.83;;
71351;SDS011;59159;51.652;4.864;2023-04-05T04:20:46;5.40;;;1.75;;
71351;SDS011;59159;51.652;4.864;2023-04-05T04:23:12;5.93;;;2.00;;
71351;SDS011;59159;51.652;4.864;2023-04-05T04:25:39;6.03;;;2.20;;
71351;SDS011;59159;51.652;4.864;2023-04-05T04:28:06;6.60;;;2.03;;
71351;SDS011;59159;51.652;4.864;2023-04-05T04:30:33;6.00;;;1.85;;
71351;SDS011;59159;51.652;4.864;2023-04-05T04:33:02;5.57;;;1.67;;
71351;SDS011;59159;51.652;4.864;2023-04-05T04:35:29;6.30;;;2.33;;
71351;SDS011;59159;51.652;4.864;2023-04-05T04:38:02;5.78;;;2.20;;
71351;SDS011;59159;51.652;4.864;2023-04-05T04:40:29;7.50;;;1.90;;
71351;SDS011;59159;51.652;4.864;2023-04-05T04:43:08;4.87;;;1.80;;
71351;SDS011;59159;51.652;4.864;2023-04-05T04:45:38;5.90;;;1.90;;
71351;SDS011;59159;51.652;4.864;2023-04-05T04:48:04;5.88;;;2.15;;
71351;SDS011;59159;51.652;4.864;2023-04-05T04:50:30;7.03;;;1.90;;
71351;SDS011;59159;51.652;4.864;2023-04-05T04:52:59;6.95;;;1.88;;
71351;SDS011;59159;51.652;4.864;2023-04-05T04:55:29;7.68;;;2.25;;
71351;SDS011;59159;51.652;4.864;2023-04-05T04:57:57;5.50;;;2.00;;
71351;SDS011;59159;51.652;4.864;2023-04-05T05:00:24;6.70;;;2.10;;
71351;SDS011;59159;51.652;4.864;2023-04-05T05:02:50;6.90;;;2.10;;
71351;SDS011;59159;51.652;4.864;2023-04-05T05:05:17;6.03;;;2.35;;
71351;SDS011;59159;51.652;4.864;2023-04-05T05:07:46;6.30;;;2.30;;
71351;SDS011;59159;51.652;4.864;2023-04-05T05:10:13;6.53;;;2.47;;
71351;SDS011;59159;51.652;4.864;2023-04-05T05:12:40;5.63;;;2.25;;
71351;SDS011;59159;51.652;4.864;2023-04-05T05:15:06;7.93;;;2.63;;
71351;SDS011;59159;51.652;4.864;2023-04-05T05:17:33;9.52;;;3.50;;
71351;SDS011;59159;51.652;4.864;2023-04-05T05:19:59;8.48;;;3.20;;
71351;SDS011;59159;51.652;4.864;2023-04-05T05:22:25;7.20;;;3.10;;
71351;SDS011;59159;51.652;4.864;2023-04-05T05:24:52;7.90;;;2.70;;
71351;SDS011;59159;51.652;4.864;2023-04-05T05:27:18;7.70;;;3.03;;
71351;SDS011;59159;51.652;4.864;2023-04-05T05:29:46;8.05;;;3.22;;
71351;SDS011;59159;51.652;4.864;2023-04-05T05:32:12;8.10;;;2.20;;
71351;SDS011;59159;51.652;4.864;2023-04-05T05:34:40;7.63;;;2.42;;
71351;SDS011;59159;51.652;4.864;2023-04-05T05:37:06;6.85;;;2.30;;
71351;SDS011;59159;51.652;4.864;2023-04-05T05:39:33;7.20;;;2.63;;
71351;SDS011;59159;51.652;4.864;2023-04-05T05:42:00;6.13;;;2.45;;
71351;SDS011;59159;51.652;4.864;2023-04-05T05:44:27;6.85;;;2.22;;
71351;SDS011;59159;51.652;4.864;2023-04-05T05:46:53;5.95;;;2.00;;
71351;SDS011;59159;51.652;4.864;2023-04-05T05:49:19;5.90;;;2.00;;
71351;SDS011;59159;51.652;4.864;2023-04-05T05:51:47;6.13;;;2.35;;
71351;SDS011;59159;51.652;4.864;2023-04-05T05:54:13;5.13;;;1.52;;
71351;SDS011;59159;51.652;4.864;2023-04-05T05:56:39;5.87;;;1.70;;
71351;SDS011;59159;51.652;4.864;2023-04-05T05:59:05;5.32;;;2.00;;
71351;SDS011;59159;51.652;4.864;2023-04-05T06:01:31;6.47;;;2.45;;
71351;SDS011;59159;51.652;4.864;2023-04-05T06:03:58;5.47;;;1.90;;
71351;SDS011;59159;51.652;4.864;2023-04-05T06:06:24;6.60;;;2.05;;
71351;SDS011;59159;51.652;4.864;2023-04-05T06:08:51;5.57;;;1.95;;
71351;SDS011;59159;51.652;4.864;2023-04-05T06:11:17;5.95;;;2.17;;
71351;SDS011;59159;51.652;4.864;2023-04-05T06:13:44;5.90;;;2.10;;
71351;SDS011;59159;51.652;4.864;2023-04-05T06:16:10;7.25;;;2.30;;
71351;SDS011;59159;51.652;4.864;2023-04-05T06:18:36;5.15;;;1.73;;
71351;SDS011;59159;51.652;4.864;2023-04-05T06:21:02;5.97;;;1.80;;
71351;SDS011;59159;51.652;4.864;2023-04-05T06:23:28;5.57;;;2.15;;
71351;SDS011;59159;51.652;4.864;2023-04-05T06:25:54;6.45;;;2.10;;
71351;SDS011;59159;51.652;4.864;2023-04-05T06:28:21;5.80;;;2.20;;
71351;SDS011;59159;51.652;4.864;2023-04-05T06:30:47;5.90;;;1.80;;
71351;SDS011;59159;51.652;4.864;2023-04-05T06:33:13;5.72;;;1.90;;
71351;SDS011;59159;51.652;4.864;2023-04-05T06:35:39;6.00;;;2.00;;
71351;SDS011;59159;51.652;4.864;2023-04-05T06:38:05;5.20;;;1.60;;
71351;SDS011;59159;51.652;4.864;2023-04-05T06:40:31;5.03;;;1.55;;
71351;SDS011;59159;51.652;4.864;2023-04-05T06:42:57;6.00;;;1.80;;
71351;SDS011;59159;51.652;4.864;2023-04-05T06:45:23;4.37;;;1.40;;
71351;SDS011;59159;51.652;4.864;2023-04-05T06:47:49;5.75;;;1.70;;
71351;SDS011;59159;51.652;4.864;2023-04-05T06:50:15;5.30;;;1.67;;
71351;SDS011;59159;51.652;4.864;2023-04-05T06:52:41;5.57;;;2.00;;
71351;SDS011;59159;51.652;4.864;2023-04-05T06:55:07;5.35;;;1.83;;
71351;SDS011;59159;51.652;4.864;2023-04-05T06:57:33;4.97;;;1.45;;
71351;SDS011;59159;51.652;4.864;2023-04-05T06:59:59;5.55;;;1.90;;
71351;SDS011;59159;51.652;4.864;2023-04-05T07:02:25;5.63;;;2.00;;
71351;SDS011;59159;51.652;4.864;2023-04-05T07:04:51;4.53;;;1.38;;
71351;SDS011;59159;51.652;4.864;2023-04-05T07:07:17;5.95;;;1.50;;
71351;SDS011;59159;51.652;4.864;2023-04-05T07:09:43;5.23;;;1.70;;
71351;SDS011;59159;51.652;4.864;2023-04-05T07:12:09;4.72;;;1.45;;
71351;SDS011;59159;51.652;4.864;2023-04-05T07:14:36;6.15;;;1.80;;
71351;SDS011;59159;51.652;4.864;2023-04-05T07:17:03;5.77;;;1.73;;
71351;SDS011;59159;51.652;4.864;2023-04-05T07:19:30;4.95;;;1.55;;
71351;SDS011;59159;51.652;4.864;2023-04-05T07:21:56;4.90;;;1.95;;
71351;SDS011;59159;51.652;4.864;2023-04-05T07:24:22;6.20;;;1.67;;
71351;SDS011;59159;51.652;4.864;2023-04-05T07:26:48;5.43;;;1.87;;
71351;SDS011;59159;51.652;4.864;2023-04-05T07:29:14;4.75;;;1.60;;
71351;SDS011;59159;51.652;4.864;2023-04-05T07:31:40;5.57;;;2.00;;
71351;SDS011;59159;51.652;4.864;2023-04-05T07:34:06;4.80;;;1.50;;
71351;SDS011;59159;51.652;4.864;2023-04-05T07:36:32;5.53;;;1.88;;
71351;SDS011;59159;51.652;4.864;2023-04-05T07:38:58;6.03;;;1.85;;
71351;SDS011;59159;51.652;4.864;2023-04-05T07:41:25;5.00;;;1.73;;
71351;SDS011;59159;51.652;4.864;2023-04-05T07:43:52;7.10;;;2.83;;
71351;SDS011;59159;51.652;4.864;2023-04-05T07:46:18;7.63;;;3.58;;
71351;SDS011;59159;51.652;4.864;2023-04-05T07:48:47;9.27;;;3.45;;
71351;SDS011;59159;51.652;4.864;2023-04-05T07:51:14;6.80;;;2.37;;
71351;SDS011;59159;51.652;4.864;2023-04-05T07:53:40;8.32;;;2.60;;
71351;SDS011;59159;51.652;4.864;2023-04-05T07:56:07;6.32;;;2.22;;
71351;SDS011;59159;51.652;4.864;2023-04-05T07:58:33;6.10;;;2.20;;
71351;SDS011;59159;51.652;4.864;2023-04-05T08:01:00;9.27;;;3.40;;
71351;SDS011;59159;51.652;4.864;2023-04-05T08:03:26;8.95;;;4.43;;
71351;SDS011;59159;51.652;4.864;2023-04-05T08:05:52;9.07;;;4.40;;
71351;SDS011;59159;51.652;4.864;2023-04-05T08:08:18;11.18;;;5.43;;
71351;SDS011;59159;51.652;4.864;2023-04-05T08:10:44;11.55;;;5.68;;
71351;SDS011;59159;51.652;4.864;2023-04-05T08:13:10;10.77;;;5.43;;
71351;SDS011;59159;51.652;4.864;2023-04-05T08:15:36;9.67;;;4.93;;
71351;SDS011;59159;51.652;4.864;2023-04-05T08:18:02;11.57;;;5.30;;
71351;SDS011;59159;51.652;4.864;2023-04-05T08:20:28;10.95;;;4.32;;
71351;SDS011;59159;51.652;4.864;2023-04-05T08:22:54;10.07;;;4.23;;
71351;SDS011;59159;51.652;4.864;2023-04-05T08:25:20;10.75;;;4.63;;
71351;SDS011;59159;51.652;4.864;2023-04-05T08:27:46;9.55;;;3.97;;
71351;SDS011;59159;51.652;4.864;2023-04-05T08:30:12;8.83;;;3.50;;
71351;SDS011;59159;51.652;4.864;2023-04-05T08:32:38;8.50;;;3.47;;
71351;SDS011;59159;51.652;4.864;2023-04-05T08:35:05;7.55;;;2.97;;
71351;SDS011;59159;51.652;4.864;2023-04-05T08:37:34;9.32;;;3.67;;
71351;SDS011;59159;51.652;4.864;2023-04-05T08:40:00;8.20;;;2.77;;
71351;SDS011;59159;51.652;4.864;2023-04-05T08:42:33;7.70;;;2.95;;
71351;SDS011;59159;51.652;4.864;2023-04-05T08:45:00;7.40;;;2.40;;
71351;SDS011;59159;51.652;4.864;2023-04-05T08:47:28;8.07;;;3.60;;
71351;SDS011;59159;51.652;4.864;2023-04-05T08:49:54;6.78;;;2.42;;
71351;SDS011;59159;51.652;4.864;2023-04-05T08:52:21;6.70;;;2.30;;
71351;SDS011;59159;51.652;4.864;2023-04-05T08:54:47;7.30;;;2.23;;
71351;SDS011;59159;51.652;4.864;2023-04-05T08:57:13;6.25;;;2.10;;
71351;SDS011;59159;51.652;4.864;2023-04-05T08:59:39;7.43;;;2.08;;
71351;SDS011;59159;51.652;4.864;2023-04-05T09:02:11;6.68;;;1.80;;
71351;SDS011;59159;51.652;4.864;2023-04-05T09:04:38;5.70;;;1.73;;
71351;SDS011;59159;51.652;4.864;2023-04-05T09:07:08;6.22;;;1.90;;
71351;SDS011;59159;51.652;4.864;2023-04-05T09:09:35;4.72;;;1.60;;
71351;SDS011;59159;51.652;4.864;2023-04-05T09:12:02;6.50;;;1.97;;
71351;SDS011;59159;51.652;4.864;2023-04-05T09:14:29;5.85;;;1.80;;
71351;SDS011;59159;51.652;4.864;2023-04-05T09:16:55;5.75;;;2.00;;
71351;SDS011;59159;51.652;4.864;2023-04-05T09:19:22;6.00;;;1.83;;
71351;SDS011;59159;51.652;4.864;2023-04-05T09:22:01;5.45;;;1.70;;
71351;SDS011;59159;51.652;4.864;2023-04-05T09:27:04;5.53;;;2.00;;
71351;SDS011;59159;51.652;4.864;2023-04-05T09:29:30;4.93;;;1.90;;
71351;SDS011;59159;51.652;4.864;2023-04-05T09:31:56;6.53;;;1.30;;
71351;SDS011;59159;51.652;4.864;2023-04-05T09:34:22;6.97;;;1.52;;
71351;SDS011;59159;51.652;4.864;2023-04-05T09:36:48;5.70;;;1.93;;
71351;SDS011;59159;51.652;4.864;2023-04-05T09:39:15;5.40;;;1.70;;
71351;SDS011;59159;51.652;4.864;2023-04-05T09:41:58;5.00;;;1.30;;
71351;SDS011;59159;51.652;4.864;2023-04-05T09:44:40;5.83;;;1.43;;
71351;SDS011;59159;51.652;4.864;2023-04-05T09:47:14;5.63;;;1.40;;
71351;SDS011;59159;51.652;4.864;2023-04-05T09:49:44;6.50;;;1.77;;
71351;SDS011;59159;51.652;4.864;2023-04-05T09:52:19;5.32;;;1.98;;
71351;SDS011;59159;51.652;4.864;2023-04-05T09:54:46;6.97;;;1.50;;
71351;SDS011;59159;51.652;4.864;2023-04-05T09:57:12;4.18;;;1.00;;
71351;SDS011;59159;51.652;4.864;2023-04-05T09:59:38;4.60;;;1.40;;
71351;SDS011;59159;51.652;4.864;2023-04-05T10:02:04;4.40;;;1.13;;
71351;SDS011;59159;51.652;4.864;2023-04-05T10:04:43;7.25;;;2.13;;
71351;SDS011;59159;51.652;4.864;2023-04-05T10:07:14;4.57;;;1.50;;
71351;SDS011;59159;51.652;4.864;2023-04-05T10:09:40;4.67;;;1.33;;
71351;SDS011;59159;51.652;4.864;2023-04-05T10:12:07;4.97;;;1.00;;
71351;SDS011;59159;51.652;4.864;2023-04-05T10:14:36;4.80;;;1.33;;
71351;SDS011;59159;51.652;4.864;2023-04-05T10:19:35;6.33;;;2.93;;
71351;SDS011;59159;51.652;4.864;2023-04-05T10:22:03;4.05;;;1.25;;
71351;SDS011;59159;51.652;4.864;2023-04-05T10:24:43;4.22;;;1.10;;
71351;SDS011;59159;51.652;4.864;2023-04-05T10:27:14;4.70;;;1.40;;
71351;SDS011;59159;51.652;4.864;2023-04-05T10:35:07;5.90;;;1.53;;
71351;SDS011;59159;51.652;4.864;2023-04-05T10:37:38;4.30;;;1.35;;
71351;SDS011;59159;51.652;4.864;2023-04-05T10:40:07;4.13;;;1.30;;
71351;SDS011;59159;51.652;4.864;2023-04-05T10:42:42;3.92;;;1.38;;
71351;SDS011;59159;51.652;4.864;2023-04-05T10:45:08;5.13;;;1.70;;
71351;SDS011;59159;51.652;4.864;2023-04-05T10:47:37;6.60;;;1.90;;
71351;SDS011;59159;51.652;4.864;2023-04-05T10:50:07;6.38;;;2.28;;
71351;SDS011;59159;51.652;4.864;2023-04-05T10:52:34;7.33;;;2.57;;
71351;SDS011;59159;51.652;4.864;2023-04-05T10:55:01;6.00;;;2.38;;
71351;SDS011;59159;51.652;4.864;2023-04-05T10:57:28;7.40;;;2.67;;
71351;SDS011;59159;51.652;4.864;2023-04-05T10:59:55;6.50;;;2.63;;
71351;SDS011;59159;51.652;4.864;2023-04-05T11:02:21;7.28;;;2.67;;
71351;SDS011;59159;51.652;4.864;2023-04-05T11:04:54;8.13;;;3.35;;
71351;SDS011;59159;51.652;4.864;2023-04-05T11:07:20;7.18;;;2.88;;
71351;SDS011;59159;51.652;4.864;2023-04-05T11:12:19;6.68;;;2.97;;
71351;SDS011;59159;51.652;4.864;2023-04-05T11:14:45;6.43;;;2.63;;
71351;SDS011;59159;51.652;4.864;2023-04-05T11:17:26;7.83;;;3.10;;
71351;SDS011;59159;51.652;4.864;2023-04-05T11:20:05;7.78;;;3.13;;
71351;SDS011;59159;51.652;4.864;2023-04-05T11:22:36;7.88;;;2.72;;
71351;SDS011;59159;51.652;4.864;2023-04-05T11:25:02;8.73;;;2.90;;
71351;SDS011;59159;51.652;4.864;2023-04-05T11:29:55;8.90;;;3.20;;
71351;SDS011;59159;51.652;4.864;2023-04-05T11:32:21;7.78;;;3.10;;
71351;SDS011;59159;51.652;4.864;2023-04-05T11:35:00;7.27;;;3.20;;
71351;SDS011;59159;51.652;4.864;2023-04-05T11:40:34;7.43;;;2.70;;
71351;SDS011;59159;51.652;4.864;2023-04-05T11:43:02;9.13;;;2.87;;
71351;SDS011;59159;51.652;4.864;2023-04-05T11:45:30;8.85;;;3.10;;
71351;SDS011;59159;51.652;4.864;2023-04-05T11:47:57;7.13;;;3.42;;
71351;SDS011;59159;51.652;4.864;2023-04-05T11:50:24;8.57;;;3.20;;
71351;SDS011;59159;51.652;4.864;2023-04-05T11:55:35;8.20;;;3.00;;
71351;SDS011;59159;51.652;4.864;2023-04-05T11:58:01;8.63;;;3.50;;
71351;SDS011;59159;51.652;4.864;2023-04-05T12:00:27;8.23;;;3.53;;
71351;SDS011;59159;51.652;4.864;2023-04-05T12:02:56;9.02;;;3.70;;
71351;SDS011;59159;51.652;4.864;2023-04-05T12:05:22;7.78;;;3.08;;
71351;SDS011;59159;51.652;4.864;2023-04-05T12:07:51;7.93;;;3.57;;
71351;SDS011;59159;51.652;4.864;2023-04-05T12:10:20;7.55;;;3.13;;
71351;SDS011;59159;51.652;4.864;2023-04-05T12:12:46;10.27;;;3.85;;
71351;SDS011;59159;51.652;4.864;2023-04-05T12:15:13;10.60;;;4.27;;
71351;SDS011;59159;51.652;4.864;2023-04-05T12:17:46;8.93;;;3.67;;
71351;SDS011;59159;51.652;4.864;2023-04-05T12:20:14;8.07;;;3.03;;
71351;SDS011;59159;51.652;4.864;2023-04-05T12:22:42;8.38;;;3.63;;
71351;SDS011;59159;51.652;4.864;2023-04-05T12:25:09;9.77;;;3.67;;
71351;SDS011;59159;51.652;4.864;2023-04-05T12:27:35;8.85;;;3.38;;
71351;SDS011;59159;51.652;4.864;2023-04-05T12:33:00;7.47;;;3.10;;
71351;SDS011;59159;51.652;4.864;2023-04-05T12:35:32;7.75;;;3.35;;
71351;SDS011;59159;51.652;4.864;2023-04-05T12:38:02;7.03;;;2.80;;
71351;SDS011;59159;51.652;4.864;2023-04-05T12:40:29;8.37;;;3.20;;
71351;SDS011;59159;51.652;4.864;2023-04-05T12:43:03;8.18;;;3.15;;
71351;SDS011;59159;51.652;4.864;2023-04-05T12:45:29;7.75;;;3.63;;
71351;SDS011;59159;51.652;4.864;2023-04-05T12:48:03;8.75;;;3.53;;
71351;SDS011;59159;51.652;4.864;2023-04-05T12:50:33;9.87;;;3.70;;
71351;SDS011;59159;51.652;4.864;2023-04-05T12:53:00;7.68;;;3.15;;
71351;SDS011;59159;51.652;4.864;2023-04-05T12:55:27;7.70;;;3.10;;
71351;SDS011;59159;51.652;4.864;2023-04-05T12:57:54;7.20;;;3.17;;
71351;SDS011;59159;51.652;4.864;2023-04-05T13:00:21;9.65;;;3.42;;
71351;SDS011;59159;51.652;4.864;2023-04-05T13:02:52;7.85;;;3.15;;
71351;SDS011;59159;51.652;4.864;2023-04-05T13:05:20;9.07;;;3.00;;
71351;SDS011;59159;51.652;4.864;2023-04-05T13:07:46;8.73;;;3.83;;
71351;SDS011;59159;51.652;4.864;2023-04-05T13:10:12;7.40;;;3.20;;
71351;SDS011;59159;51.652;4.864;2023-04-05T13:12:39;8.55;;;3.20;;
71351;SDS011;59159;51.652;4.864;2023-04-05T13:15:05;12.47;;;4.10;;
71351;SDS011;59159;51.652;4.864;2023-04-05T13:17:31;8.70;;;3.53;;
71351;SDS011;59159;51.652;4.864;2023-04-05T13:19:57;7.63;;;3.35;;
71351;SDS011;59159;51.652;4.864;2023-04-05T13:22:23;9.60;;;3.60;;
71351;SDS011;59159;51.652;4.864;2023-04-05T13:24:49;6.60;;;3.00;;
71351;SDS011;59159;51.652;4.864;2023-04-05T13:27:17;7.82;;;3.10;;
71351;SDS011;59159;51.652;4.864;2023-04-05T13:29:45;7.73;;;3.73;;
71351;SDS011;59159;51.652;4.864;2023-04-05T13:32:11;7.53;;;3.10;;
71351;SDS011;59159;51.652;4.864;2023-04-05T13:34:37;8.15;;;3.15;;
71351;SDS011;59159;51.652;4.864;2023-04-05T13:37:03;10.45;;;4.57;;
71351;SDS011;59159;51.652;4.864;2023-04-05T13:39:29;7.13;;;3.20;;
71351;SDS011;59159;51.652;4.864;2023-04-05T13:41:55;8.10;;;2.97;;
71351;SDS011;59159;51.652;4.864;2023-04-05T13:44:21;8.98;;;3.70;;
71351;SDS011;59159;51.652;4.864;2023-04-05T13:46:47;7.77;;;3.00;;
71351;SDS011;59159;51.652;4.864;2023-04-05T13:49:14;9.43;;;3.75;;
71351;SDS011;59159;51.652;4.864;2023-04-05T13:51:40;9.80;;;3.97;;
71351;SDS011;59159;51.652;4.864;2023-04-05T13:54:06;9.17;;;3.80;;
71351;SDS011;59159;51.652;4.864;2023-04-05T13:56:35;10.05;;;3.50;;
71351;SDS011;59159;51.652;4.864;2023-04-05T13:59:01;8.10;;;3.60;;
71351;SDS011;59159;51.652;4.864;2023-04-05T14:01:27;7.60;;;3.13;;
71351;SDS011;59159;51.652;4.864;2023-04-05T14:03:53;9.60;;;3.50;;
71351;SDS011;59159;51.652;4.864;2023-04-05T14:06:19;8.73;;;3.95;;
71351;SDS011;59159;51.652;4.864;2023-04-05T14:08:45;11.40;;;4.25;;
71351;SDS011;59159;51.652;4.864;2023-04-05T14:11:11;6.73;;;2.80;;
71351;SDS011;59159;51.652;4.864;2023-04-05T14:13:37;7.03;;;2.65;;
71351;SDS011;59159;51.652;4.864;2023-04-05T14:16:03;7.72;;;3.05;;
71351;SDS011;59159;51.652;4.864;2023-04-05T14:18:30;7.30;;;2.70;;
71351;SDS011;59159;51.652;4.864;2023-04-05T14:20:56;7.60;;;2.53;;
71351;SDS011;59159;51.652;4.864;2023-04-05T14:23:22;6.97;;;2.42;;
71351;SDS011;59159;51.652;4.864;2023-04-05T14:25:50;7.63;;;2.42;;
71351;SDS011;59159;51.652;4.864;2023-04-05T14:28:16;5.90;;;2.07;;
71351;SDS011;59159;51.652;4.864;2023-04-05T14:30:42;8.43;;;2.40;;
71351;SDS011;59159;51.652;4.864;2023-04-05T14:33:08;5.10;;;1.85;;
71351;SDS011;59159;51.652;4.864;2023-04-05T14:35:34;6.17;;;1.90;;
71351;SDS011;59159;51.652;4.864;2023-04-05T14:38:00;6.43;;;2.63;;
71351;SDS011;59159;51.652;4.864;2023-04-05T14:40:26;6.95;;;1.98;;
71351;SDS011;59159;51.652;4.864;2023-04-05T14:42:52;5.97;;;2.03;;
71351;SDS011;59159;51.652;4.864;2023-04-05T14:45:18;5.57;;;1.92;;
71351;SDS011;59159;51.652;4.864;2023-04-05T14:47:45;5.80;;;1.90;;
71351;SDS011;59159;51.652;4.864;2023-04-05T14:50:11;5.75;;;1.65;;
71351;SDS011;59159;51.652;4.864;2023-04-05T14:52:37;5.07;;;1.60;;
71351;SDS011;59159;51.652;4.864;2023-04-05T14:55:03;5.43;;;1.85;;
71351;SDS011;59159;51.652;4.864;2023-04-05T14:57:30;5.28;;;1.38;;
71351;SDS011;59159;51.652;4.864;2023-04-05T14:59:56;4.77;;;1.17;;
71351;SDS011;59159;51.652;4.864;2023-04-05T15:02:22;4.90;;;1.30;;
71351;SDS011;59159;51.652;4.864;2023-04-05T15:04:48;6.03;;;1.70;;
71351;SDS011;59159;51.652;4.864;2023-04-05T15:07:14;3.90;;;1.20;;
71351;SDS011;59159;51.652;4.864;2023-04-05T15:09:40;4.85;;;1.67;;
71351;SDS011;59159;51.652;4.864;2023-04-05T15:12:07;4.25;;;1.20;;
71351;SDS011;59159;51.652;4.864;2023-04-05T15:14:33;5.68;;;1.60;;
71351;SDS011;59159;51.652;4.864;2023-04-05T15:16:59;4.63;;;1.43;;
71351;SDS011;59159;51.652;4.864;2023-04-05T15:19:25;5.75;;;1.70;;
71351;SDS011;59159;51.652;4.864;2023-04-05T15:21:51;4.07;;;1.33;;
71351;SDS011;59159;51.652;4.864;2023-04-05T15:24:17;4.47;;;1.30;;
71351;SDS011;59159;51.652;4.864;2023-04-05T15:26:43;4.55;;;1.30;;
71351;SDS011;59159;51.652;4.864;2023-04-05T15:29:09;6.07;;;1.42;;